A- A+ FrançaisEnglishEspañol中国

Services sur Internet Soldes sur Internet Des idées de cadeaux Météo Météo aéro

La météo à : Autours de vous Tarbes-Lourdes-PyrénéesAvignon-Caumont Oloron-HerrereCalais-Dunkerque

manche à air

La météo aéronautique pour les pilotes, la préparation du vol avec les METAR (METeorological Aerodrome Report, message d'observation des conditions météorologiques pour l'aviation) et Les TAF (Terminal Aerodrome Forecast : message de prévision à court terme des conditions météorologiques pour l'aviation). Et les autres ressources comme les VAC (Visual Approch Chart) et les NOTAM (Notice To Airman) pour préprer les vols.

Aéroport Beauvechain AB (Belgique) / OACI EBBE

L'altitude de l'aéroport Beauvechain AB est de 113 m = 371 ft. Il est situé à proximité de Beauvechain (Belgique). La météo générale à 5 jours est disponible pour Wavre situé à 12.2 km.

METAR de l'aéroport Beauvechain AB - EBBE

EBBE 040855Z 13005KT 9999 SKC 02/00 Q1022 BLU BLU

Décodage du METAR de l'aéroport Beauvechain AB (Belgique)

METAR émis par EBBE le mercredi 4 décembre 2019 à 08:55 heure TU. Attention ce METAR est obsolète car il a été émis il y a 13 heure et 17 minutes.

La visibilité est de supérieure à 10 km = supérieure à 6.2 sm.

La température est de 2°C = 36 °F et le point rosée est de 0°C = 32 °F . Ce qui correspond à 87% d'humidité relative.

Le QNH est de 1022 hPa = 30.18 inHg

Vent de 5 kt = 9 km/h, orienté à 130°.

Pas de nuages.

BLU BLU

TAF de l'aéroport Beauvechain AB - EBBE

EBBE 040541Z 0407/0416 VRB02KT 9999 SKC PROB30 TEMPO 0407/0409 5000 BR TEMPO 0407/0413 15005KT FEW020 SCT300

EBBE 040541Z 0407/0416 VRB02KT 9999 ciel dégagé probabilité de 30% d'avoir temporairement 0407/0409 5000 brume temporairement 0407/0413 15005KT quelques nuages à 020 nuages épars à 300

Aéroport à proximité de Beauvechain AB

Météo générale à 5 jours à Wavre (12.2 km)Aéroport Goetsenhoven Mil (14 km)Aéroport Brussels National (25 km)Aéroport Melsbroek Mil (26 km)Aéroport Namur-Suarlee (30 km)Aéroport Sint Truiden Mil (31 km)Aéroport Bruxelle Grimbergen (34 km)

Vue aérienne de l'aéroport Beauvechain AB

NOTAM de l'aéroport Beauvechain AB

Les NOTAM sont fournis sans aucune garantie de leur actualité. Le pilote est le seul responsable de la vérification de sa validité avant de l'utiliser opérationnellement pour préparer un vol ou l'utiliser lors de sa navigation.

Pas de NOTAM

Sources des données